Historyczne dane pomiarowe

Dodano dane terminowe – wersja testowa.

Dane z okresu 1951-2019

Wersja bazy: 1.34 [2019-03-16, lista zmian], aktualizacja planowana na 2019-04-15

Dane meteo z obszaru Polski uzyskane na podstawie danych udostępnionych przez Instytut Meteorologii i Gospodarki Wodnej – Państwowy Instytut Badawczy.

 

Wybierz Datę:    

       

TemperaturaWilgotnośćWiatrCiśnienieOpadyŚniegCzas trwania zjawisk
 Stacja t tx tn tng RH VA  wxwx mslp ppp RRR   cm mm wxwxwxwxwxwxwx
2019-07-25 20.5 27.8 15.0 15.0-- 2.7 0.3---- 0.0------------
2019-07-24 18.5 23.8 14.9 14.8-- 7.0 0.3---- 0.0------------
2019-07-23 16.7 20.5 14.3 14.2-- 8.0 0.0---- 1.9------------
2019-07-22 18.6 25.8 12.9 12.6-- 4.0 0.7---- 0.5------------
2019-07-21 19.1 27.6 14.7 14.3-- 6.3 0.7---- 9.1------------
2019-07-20 18.7 26.0 12.4 12.3-- 6.0 0.3---- 1.9------------
2019-07-19 16.4 26.2 7.9 7.7-- 4.7 0.0---- 4.2------------
2019-07-18 15.3 22.6 7.0 6.7-- 4.0 0.3---- 0.0------------
2019-07-17 15.3 21.7 7.4 6.6-- 3.0 1.3---- 0.0------------
2019-07-16 14.7 24.8 4.4 3.6-- 3.7 1.0---- 0.0------------
2019-07-15 14.1 21.9 8.0 8.1-- 3.0 0.3---- 0.0------------
2019-07-14 14.8 18.7 12.4 11.9-- 7.7 1.7---- 7.7------------
2019-07-13 15.9 21.9 11.3 10.5-- 6.3 0.3---- 3.5------------
2019-07-12 13.9 23.2 5.5 6.4-- 4.0 0.3---- 0.0------------
2019-07-11 11.8 16.8 6.9 4.6-- 6.0 0.7---- 5.7------------
2019-07-10 13.6 19.2 6.4 4.5-- 4.7 2.0---- 1.6------------
2019-07-09 13.4 20.1 5.4 4.5-- 3.7 1.0---- 0.0------------
2019-07-08 14.7 19.9 8.5 7.3-- 4.3 1.3---- 0.0------------
2019-07-07 18.4 26.2 13.1 12.4-- 5.0 0.3---- 1.7------------
2019-07-06 19.7 27.5 12.5 11.6-- 4.7 0.7---- 0.0------------
2019-07-05 16.2 24.5 6.7 6.0-- 5.0 0.0---- 0.0------------
2019-07-04 15.3 24.3 5.9 5.0-- 1.0 0.7---- 0.0------------
2019-07-03 16.6 23.3 9.2 7.0-- 1.7 1.3---- 0.0------------
2019-07-02 21.7 27.3 17.8 16.7-- 2.0 0.7---- 0.0------------
2019-07-01 23.1 33.3 13.1 11.5-- 2.0 1.3---- 0.0------------
2019-06-30 20.8 31.4 9.9 8.8-- 0.0 0.7---- 0.0------------
2019-06-29 18.5 25.4 11.5 11.0-- 2.7 1.0---- 0.0------------
2019-06-28 17.2 23.0 11.9 11.2-- 5.3 1.0---- 0.0------------
2019-06-27 22.8 29.1 16.9 16.7-- 1.0 1.3---- 0.0------------
2019-06-26 23.3 32.4 14.4 13.0-- 1.3 0.7---- 0.0------------
2019-06-25 21.6 30.4 14.4 12.9-- 0.7 0.3---- 0.0------------
2019-06-24 19.9 23.8 15.9 14.8-- 7.3 1.3---- 0.0------------
2019-06-23 20.0 25.5 15.4 15.0-- 7.0 2.3---- 0.7------------
2019-06-22 19.6 23.6 15.4 14.3-- 5.3 2.3---- 0.0------------
2019-06-21 20.0 24.8 15.8 15.7-- 5.3 0.3---- 1.4------------
2019-06-20 19.8 26.0 15.8 14.8-- 6.3 1.0---- 0.0------------
2019-06-19 20.1 26.8 15.9 15.7-- 6.7 0.7---- 0.5------------
2019-06-18 16.6 24.4 9.0 9.3-- 6.7 1.3---- 2.6------------
2019-06-17 17.6 21.0 15.8 14.8-- 6.3 2.3---- 1.2------------
2019-06-16 21.9 31.3 16.2 15.9-- 3.3 1.7---- 27.7------------
2019-06-15 23.6 31.9 16.3 16.0-- 1.3 0.7---- 0.0------------
2019-06-14 22.8 31.4 15.3 14.4-- 3.3 2.3---- 0.3------------
2019-06-13 22.7 30.9 14.1 13.5-- 0.3 0.3---- 0.0------------
2019-06-12 22.1 29.8 13.4 12.8-- 2.0 0.7---- 0.0------------
2019-06-11 22.1 29.1 13.8 13.3-- 0.7 0.7---- 0.0------------
2019-06-10 20.5 28.8 13.2 12.3-- 2.0 0.7---- 0.0------------
2019-06-09 20.5 25.6 15.0 14.1-- 2.7 2.7---- 0.0------------
2019-06-08 19.9 28.1 12.8 12.1-- 4.7 1.7---- 0.0------------
2019-06-07 17.7 23.8 11.5 11.3-- 3.7 0.7---- 0.0------------
2019-06-06 16.8 22.8 10.1 8.5-- 3.0 1.0---- 2.0------------
2019-06-05 18.1 24.3 12.9 12.6-- 3.7 0.7---- 0.0------------
2019-06-04 18.7 26.0 11.9 11.2-- 5.0 0.7---- 1.5------------
2019-06-03 17.7 25.9 9.4 8.9-- 2.3 2.0---- 0.0------------
2019-06-02 16.8 24.8 10.9 10.1-- 2.3 0.3---- 0.0------------
2019-06-01 13.7 23.2 6.1 5.5-- 6.0 1.0---- 0.0------------
2019-05-31 12.9 19.1 8.2 8.2-- 5.7 1.0---- 0.0------------
2019-05-30 9.5 11.5 8.1 8.0-- 8.0 0.0---- 16.7------------
2019-05-29 12.5 16.1 9.5 8.4-- 8.0 1.3---- 7.3------------
2019-05-28 16.6 21.8 13.9 13.0-- 6.7 1.7---- 2.8------------
2019-05-27 15.5 23.0 9.4 9.0-- 5.0 0.7---- 0.5------------
107.3 ms

 

Źródłem pochodzenia danych jest Instytut Meteorologii i Gospodarki Wodnej – Państwowy Instytut Badawczy. Dane Instytutu Meteorologii i Gospodarki Wodnej – Państwowego Instytutu Badawczego zostały przetworzone.

Dane źródłowe można odnaleźć na stronie https://dane.imgw.pl